createdAt,value
2022-11-16T00:02:13.353Z,0.30
2022-11-16T00:04:40.007Z,0.63
2022-11-16T00:07:06.816Z,0.30
2022-11-16T00:09:33.749Z,0.30
2022-11-16T00:12:03.812Z,0.65
2022-11-16T00:14:33.045Z,0.47
2022-11-16T00:17:00.474Z,0.50
2022-11-16T00:19:27.705Z,0.45
2022-11-16T00:21:54.942Z,0.30
2022-11-16T00:24:22.486Z,0.95
2022-11-16T00:26:50.143Z,1.10
2022-11-16T00:29:20.653Z,0.50
2022-11-16T00:31:47.954Z,0.47
2022-11-16T00:34:15.334Z,0.10
2022-11-16T00:36:42.174Z,1.05
2022-11-16T00:39:11.763Z,0.47
2022-11-16T00:41:38.245Z,0.30
2022-11-16T00:44:04.908Z,0.30
2022-11-16T00:46:31.408Z,0.30
2022-11-16T00:48:57.869Z,0.30
2022-11-16T00:51:24.379Z,0.57
2022-11-16T00:53:52.265Z,0.20
2022-11-16T00:56:18.946Z,0.20
2022-11-16T00:58:45.517Z,0.60
2022-11-16T01:01:12.376Z,0.10
2022-11-16T01:03:39.422Z,0.10
2022-11-16T01:06:09.350Z,0.10
2022-11-16T01:08:37.668Z,0.68
2022-11-16T01:11:23.857Z,0.30
2022-11-16T01:13:50.699Z,0.10
2022-11-16T01:16:18.941Z,0.20
2022-11-16T01:18:50.041Z,0.50
2022-11-16T01:21:16.895Z,1.67
2022-11-16T01:23:43.511Z,2.80
2022-11-16T01:26:10.100Z,2.35
2022-11-16T01:28:37.114Z,2.00
2022-11-16T01:31:04.043Z,1.98
2022-11-16T01:33:31.016Z,0.93
2022-11-16T01:35:57.520Z,0.60
2022-11-16T01:38:29.384Z,0.30
2022-11-16T01:40:56.706Z,0.30
2022-11-16T01:43:25.331Z,0.60
2022-11-16T01:45:52.244Z,0.77
2022-11-16T01:48:30.059Z,3.70
2022-11-16T01:50:57.642Z,3.08
2022-11-16T01:53:25.498Z,4.53
2022-11-16T01:55:52.257Z,4.45
2022-11-16T01:58:23.181Z,4.60
2022-11-16T02:00:50.175Z,5.95
2022-11-16T02:03:20.967Z,4.00
2022-11-16T02:06:06.074Z,3.17
2022-11-16T02:09:07.134Z,1.40
2022-11-16T02:11:54.615Z,0.77
2022-11-16T02:14:53.381Z,0.73
2022-11-16T02:17:25.889Z,0.28
2022-11-16T02:20:10.590Z,0.10
2022-11-16T02:23:13.744Z,0.32
2022-11-16T02:26:05.153Z,0.20
2022-11-16T02:28:31.956Z,0.32
2022-11-16T02:31:03.851Z,0.20
2022-11-16T02:33:36.917Z,0.30
2022-11-16T02:36:06.738Z,0.10
2022-11-16T02:38:38.872Z,0.15
2022-11-16T02:41:10.141Z,0.10
2022-11-16T02:43:50.584Z,0.40
2022-11-16T02:46:22.587Z,0.27
2022-11-16T02:48:53.225Z,0.45
2022-11-16T02:51:21.336Z,0.22
2022-11-16T02:54:08.573Z,0.35
2022-11-16T02:56:56.895Z,0.20
2022-11-16T02:59:28.936Z,0.20
2022-11-16T03:02:32.955Z,0.50
2022-11-16T03:05:14.853Z,0.40
2022-11-16T03:07:49.683Z,0.60
2022-11-16T03:10:38.667Z,0.77
2022-11-16T03:13:07.075Z,0.20
2022-11-16T03:15:37.454Z,0.20
2022-11-16T03:18:07.029Z,0.20
2022-11-16T03:20:35.290Z,0.20
2022-11-16T03:23:08.768Z,0.20
2022-11-16T03:25:51.432Z,0.33
2022-11-16T03:28:34.280Z,0.20
2022-11-16T03:31:29.611Z,0.50
2022-11-16T03:34:00.960Z,0.40
2022-11-16T03:36:41.562Z,0.25
2022-11-16T03:39:19.656Z,0.60
2022-11-16T03:41:48.053Z,0.28
2022-11-16T03:44:17.265Z,0.50
2022-11-16T03:46:45.383Z,0.45
2022-11-16T03:49:12.090Z,0.32
2022-11-16T03:51:38.831Z,1.37
2022-11-16T03:54:05.408Z,0.50
2022-11-16T03:56:31.883Z,0.40
2022-11-16T03:58:58.467Z,0.60
2022-11-16T04:01:25.084Z,0.60
2022-11-16T04:03:51.641Z,0.73
2022-11-16T04:06:50.837Z,0.90
2022-11-16T04:09:35.680Z,0.47
2022-11-16T04:12:20.834Z,0.40
2022-11-16T04:15:05.703Z,0.40
2022-11-16T04:17:50.747Z,0.50
2022-11-16T04:20:46.400Z,0.70
2022-11-16T04:23:34.908Z,0.40
2022-11-16T04:26:01.480Z,0.50
2022-11-16T04:28:34.052Z,0.45
2022-11-16T04:31:21.890Z,0.30
2022-11-16T04:34:09.676Z,0.30
2022-11-16T04:36:54.530Z,0.10
2022-11-16T04:39:21.098Z,0.17
2022-11-16T04:42:06.681Z,0.25
2022-11-16T04:44:54.981Z,0.30
2022-11-16T04:47:21.432Z,0.28
2022-11-16T04:49:47.876Z,0.38
2022-11-16T04:52:14.326Z,0.25
2022-11-16T04:54:40.823Z,0.60
2022-11-16T04:57:07.284Z,0.90
2022-11-16T04:59:33.735Z,0.90
2022-11-16T05:02:09.367Z,1.40
2022-11-16T05:04:43.600Z,1.58
2022-11-16T05:07:13.590Z,1.50
2022-11-16T05:09:49.580Z,2.50
2022-11-16T05:12:18.436Z,2.58
2022-11-16T05:14:45.775Z,3.00
2022-11-16T05:17:13.302Z,3.03
2022-11-16T05:19:58.428Z,2.75
2022-11-16T05:22:24.899Z,1.70
2022-11-16T05:24:51.943Z,1.85
2022-11-16T05:27:20.315Z,2.13
2022-11-16T05:29:49.439Z,1.38
2022-11-16T05:32:16.856Z,1.42
2022-11-16T05:34:43.460Z,1.10
2022-11-16T05:37:10.251Z,1.27
2022-11-16T05:39:36.836Z,1.40
2022-11-16T05:42:03.919Z,1.20
2022-11-16T05:44:30.342Z,0.55
2022-11-16T05:46:56.891Z,0.90
2022-11-16T05:49:23.867Z,1.40
2022-11-16T05:51:50.663Z,1.85
2022-11-16T05:54:20.778Z,9.23
2022-11-16T05:56:49.301Z,3.22
2022-11-16T05:59:18.656Z,1.07
2022-11-16T06:01:45.629Z,1.00
2022-11-16T06:04:12.799Z,1.35
2022-11-16T06:06:39.717Z,3.15
2022-11-16T06:09:06.236Z,2.53
2022-11-16T06:11:36.028Z,1.47
2022-11-16T06:14:03.088Z,2.17
2022-11-16T06:16:29.585Z,1.40
2022-11-16T06:18:56.229Z,2.22
2022-11-16T06:21:22.784Z,0.75
2022-11-16T06:23:49.303Z,0.40
2022-11-16T06:26:15.828Z,0.40
2022-11-16T06:28:42.305Z,0.85
2022-11-16T06:31:09.201Z,0.52
2022-11-16T06:33:36.056Z,0.90
2022-11-16T06:36:02.523Z,0.50
2022-11-16T06:38:29.117Z,0.30
2022-11-16T06:40:57.852Z,0.40
2022-11-16T06:43:26.035Z,0.45
2022-11-16T06:45:55.192Z,0.55
2022-11-16T06:48:22.266Z,0.60
2022-11-16T06:50:49.984Z,0.77
2022-11-16T06:53:16.888Z,0.40
2022-11-16T06:55:43.663Z,0.80
2022-11-16T06:58:10.432Z,0.30
2022-11-16T07:00:37.091Z,1.00
2022-11-16T07:03:04.510Z,0.65
2022-11-16T07:05:32.190Z,0.30
2022-11-16T07:07:58.826Z,0.50
2022-11-16T07:10:26.164Z,0.45
2022-11-16T07:12:52.749Z,0.43
2022-11-16T07:15:19.591Z,1.00
2022-11-16T07:17:46.512Z,0.70
2022-11-16T07:20:13.460Z,0.73
2022-11-16T07:22:40.192Z,0.47
2022-11-16T07:25:07.425Z,1.10
2022-11-16T07:27:33.982Z,0.68
2022-11-16T07:30:02.091Z,1.40
2022-11-16T07:32:30.922Z,3.63
2022-11-16T07:34:59.440Z,2.85
2022-11-16T07:37:26.340Z,3.03
2022-11-16T07:39:53.038Z,1.65
2022-11-16T07:42:19.547Z,2.28
2022-11-16T07:44:46.063Z,1.98
2022-11-16T07:47:12.687Z,1.83
2022-11-16T07:49:39.200Z,1.40
2022-11-16T07:52:08.777Z,1.60
2022-11-16T07:54:35.334Z,1.40
2022-11-16T07:57:01.808Z,1.70
2022-11-16T07:59:28.526Z,2.00
2022-11-16T08:01:55.925Z,1.30
2022-11-16T08:04:22.726Z,2.08
2022-11-16T08:06:51.598Z,2.20
2022-11-16T08:09:18.288Z,2.10
2022-11-16T08:11:44.918Z,1.90
2022-11-16T08:14:11.714Z,2.00
2022-11-16T08:16:38.201Z,1.88
2022-11-16T08:19:04.706Z,2.80
2022-11-16T08:21:31.182Z,1.92
2022-11-16T08:23:58.811Z,1.40
2022-11-16T08:26:25.678Z,1.03
2022-11-16T08:28:53.733Z,0.65
2022-11-16T08:31:24.050Z,0.77
2022-11-16T08:33:51.912Z,0.50
2022-11-16T08:36:18.697Z,0.30
2022-11-16T08:38:47.020Z,0.33
2022-11-16T08:41:14.075Z,0.57
2022-11-16T08:43:41.107Z,0.20
2022-11-16T08:46:08.836Z,0.30
2022-11-16T08:48:37.535Z,0.10
2022-11-16T08:51:21.459Z,0.20
2022-11-16T08:53:49.367Z,0.20
2022-11-16T08:56:18.114Z,0.52
2022-11-16T08:58:47.290Z,0.32
2022-11-16T09:01:19.226Z,0.60
2022-11-16T09:03:46.285Z,0.40
2022-11-16T09:06:14.084Z,0.43
2022-11-16T09:08:42.764Z,0.70
2022-11-16T09:11:18.378Z,0.40
2022-11-16T09:13:46.722Z,0.35
2022-11-16T09:16:16.583Z,0.20
2022-11-16T09:18:45.583Z,0.20
2022-11-16T09:21:12.196Z,0.20
2022-11-16T09:23:38.705Z,0.20
2022-11-16T09:26:05.954Z,0.32
2022-11-16T09:28:33.097Z,0.30
2022-11-16T09:31:02.592Z,0.40
2022-11-16T09:33:30.806Z,0.45
2022-11-16T09:36:01.968Z,0.32
2022-11-16T09:38:40.594Z,0.20
2022-11-16T09:41:15.200Z,0.40
2022-11-16T09:43:51.660Z,0.35
2022-11-16T09:46:40.436Z,0.35
2022-11-16T09:49:20.934Z,0.30
2022-11-16T09:51:50.638Z,0.25
2022-11-16T09:54:22.730Z,0.30
2022-11-16T09:56:53.354Z,0.22
2022-11-16T09:59:27.225Z,0.45
2022-11-16T10:01:58.085Z,0.10
2022-11-16T10:04:39.457Z,0.20
2022-11-16T10:07:15.880Z,0.20
2022-11-16T10:09:46.731Z,0.15
2022-11-16T10:12:37.925Z,0.45
2022-11-16T10:15:23.505Z,0.22
2022-11-16T10:18:08.126Z,0.30
2022-11-16T10:20:45.224Z,0.10
2022-11-16T10:23:27.058Z,0.10
2022-11-16T10:26:00.449Z,0.30
2022-11-16T10:28:39.011Z,0.30
2022-11-16T10:31:26.313Z,0.20
2022-11-16T10:33:55.488Z,0.33
2022-11-16T10:36:27.440Z,0.20
2022-11-16T10:38:58.407Z,0.20
2022-11-16T10:41:46.313Z,0.10
2022-11-16T10:44:25.783Z,0.40
2022-11-16T10:47:16.868Z,0.30
2022-11-16T10:49:48.697Z,0.13
2022-11-16T10:52:15.201Z,0.13
2022-11-16T10:54:44.400Z,0.25
2022-11-16T10:57:14.165Z,0.20
2022-11-16T10:59:49.973Z,0.50
2022-11-16T11:02:25.275Z,0.20
2022-11-16T11:05:21.362Z,0.10
2022-11-16T11:08:11.359Z,0.30
2022-11-16T11:10:40.259Z,0.40
2022-11-16T11:13:12.887Z,0.27
2022-11-16T11:15:42.943Z,0.10
2022-11-16T11:18:30.010Z,0.10
2022-11-16T11:21:19.451Z,0.57
2022-11-16T11:23:51.292Z,0.40
2022-11-16T11:26:38.643Z,0.17
2022-11-16T11:29:27.603Z,0.20
2022-11-16T11:32:00.022Z,0.30
2022-11-16T11:34:30.489Z,0.22
2022-11-16T11:37:03.074Z,0.50
2022-11-16T11:39:37.248Z,0.80
2022-11-16T11:42:06.994Z,0.70
2022-11-16T11:44:58.722Z,0.30
2022-11-16T11:47:57.400Z,0.50
2022-11-16T11:50:47.081Z,0.55
2022-11-16T11:53:36.100Z,0.30
2022-11-16T11:56:03.118Z,0.50
2022-11-16T11:58:32.447Z,0.40
2022-11-16T12:01:28.496Z,0.40
2022-11-16T12:15:21.649Z,0.40
2022-11-16T12:18:45.159Z,0.43
2022-11-16T12:21:18.048Z,0.95
2022-11-16T12:23:55.531Z,0.33
2022-11-16T12:26:47.496Z,0.65
2022-11-16T12:29:25.725Z,0.73
2022-11-16T12:32:13.481Z,0.57
2022-11-16T12:34:52.647Z,0.30
2022-11-16T12:37:50.284Z,0.90
2022-11-16T12:40:34.105Z,0.80
2022-11-16T12:43:14.325Z,0.68
2022-11-16T12:45:59.149Z,1.02
2022-11-16T12:48:33.278Z,1.00
2022-11-16T12:51:14.909Z,0.73
2022-11-16T12:53:54.826Z,0.90
2022-11-16T12:56:27.295Z,0.50
2022-11-16T12:59:02.816Z,0.88
2022-11-16T13:05:25.526Z,1.10
2022-11-16T13:07:57.413Z,1.40
2022-11-16T13:10:35.158Z,1.65
2022-11-16T13:13:30.121Z,1.35
2022-11-16T13:15:58.657Z,1.58
2022-11-16T13:18:27.090Z,2.67
2022-11-16T13:21:11.502Z,2.25
2022-11-16T13:23:54.319Z,2.60
2022-11-16T13:26:34.089Z,1.30
2022-11-16T13:29:32.484Z,1.52
2022-11-16T13:32:30.566Z,1.10
2022-11-16T13:35:03.377Z,0.95
2022-11-16T13:37:38.920Z,0.70
2022-11-16T13:40:05.534Z,0.50
2022-11-16T13:42:34.347Z,0.80
2022-11-16T13:45:15.231Z,0.73
2022-11-16T13:47:50.266Z,1.02
2022-11-16T13:50:19.858Z,0.98
2022-11-16T13:56:10.656Z,0.75
2022-11-16T13:58:43.912Z,0.80
2022-11-16T14:01:15.378Z,1.90
2022-11-16T14:03:47.405Z,2.28
2022-11-16T14:06:13.791Z,2.53
2022-11-16T14:08:40.235Z,2.05
2022-11-16T14:11:32.856Z,2.17
2022-11-16T14:14:01.572Z,2.08
2022-11-16T14:16:29.069Z,2.40
2022-11-16T14:19:01.323Z,3.10
2022-11-16T14:21:58.903Z,1.58
2022-11-16T14:24:47.517Z,1.10
2022-11-16T14:27:41.475Z,1.65
2022-11-16T14:30:24.629Z,1.15
2022-11-16T14:32:53.819Z,0.60
2022-11-16T14:35:36.512Z,1.00
2022-11-16T14:38:06.469Z,0.90
2022-11-16T14:40:41.144Z,1.25
2022-11-16T14:43:16.925Z,1.00
2022-11-16T14:45:49.075Z,2.17
2022-11-16T14:48:18.439Z,2.13
2022-11-16T14:51:00.244Z,1.83
2022-11-16T14:53:29.239Z,2.08
2022-11-16T14:56:09.360Z,3.20
2022-11-16T14:58:36.466Z,2.67
2022-11-16T15:01:06.190Z,2.95
2022-11-16T15:03:48.074Z,2.60
2022-11-16T15:06:16.157Z,2.92
2022-11-16T15:09:02.167Z,3.22
2022-11-16T15:11:54.218Z,2.33
2022-11-16T15:14:41.690Z,1.55
2022-11-16T15:17:09.729Z,0.70
2022-11-16T15:19:36.877Z,1.00
2022-11-16T15:22:04.475Z,0.95
2022-11-16T15:24:35.442Z,1.33
2022-11-16T15:27:27.510Z,2.08
2022-11-16T15:29:54.027Z,2.53
2022-11-16T15:32:20.670Z,1.40
2022-11-16T15:34:53.822Z,1.33
2022-11-16T15:37:30.339Z,1.77
2022-11-16T15:39:59.130Z,1.35
2022-11-16T15:42:27.521Z,1.77
2022-11-16T15:44:54.833Z,1.10
2022-11-16T15:47:22.918Z,0.93
2022-11-16T15:49:52.817Z,0.82
2022-11-16T15:52:42.638Z,1.55
2022-11-16T15:55:24.391Z,1.30
2022-11-16T15:58:18.905Z,1.10
2022-11-16T16:00:48.641Z,1.45
2022-11-16T16:03:27.013Z,0.70
2022-11-16T16:05:54.564Z,1.20
2022-11-16T16:08:38.856Z,1.30
2022-11-16T16:11:28.641Z,0.60
2022-11-16T16:14:00.754Z,1.35
2022-11-16T16:16:28.205Z,0.73
2022-11-16T16:19:08.319Z,1.08
2022-11-16T16:21:44.973Z,0.73
2022-11-16T16:24:41.831Z,0.90
2022-11-16T16:27:12.402Z,1.27
2022-11-16T16:29:39.233Z,0.90
2022-11-16T16:32:06.243Z,1.00
2022-11-16T16:34:35.418Z,1.13
2022-11-16T16:37:04.158Z,1.30
2022-11-16T16:39:31.989Z,1.38
2022-11-16T16:41:58.456Z,1.20
2022-11-16T16:44:24.926Z,1.17
2022-11-16T16:46:51.373Z,0.90
2022-11-16T16:49:18.057Z,1.67
2022-11-16T16:51:44.496Z,1.20
2022-11-16T16:54:14.141Z,1.30
2022-11-16T16:56:40.691Z,0.88
2022-11-16T16:59:14.123Z,1.00
2022-11-16T17:01:41.179Z,1.20
2022-11-16T17:04:07.838Z,1.70
2022-11-16T17:06:34.652Z,1.88
2022-11-16T17:09:01.142Z,1.88
2022-11-16T17:11:29.035Z,2.33
2022-11-16T17:13:55.746Z,1.98
2022-11-16T17:16:22.750Z,2.03
2022-11-16T17:18:54.877Z,2.03
2022-11-16T17:21:21.615Z,1.63
2022-11-16T17:23:48.066Z,1.93
2022-11-16T17:26:14.668Z,1.50
2022-11-16T17:28:41.273Z,1.67
2022-11-16T17:31:10.116Z,1.75
2022-11-16T17:33:37.844Z,2.50
2022-11-16T17:36:06.217Z,2.10
2022-11-16T17:38:36.211Z,2.30
2022-11-16T17:41:15.515Z,2.50
2022-11-16T17:43:43.494Z,2.10
2022-11-16T17:46:15.513Z,1.95
2022-11-16T17:48:43.744Z,1.60
2022-11-16T17:51:15.268Z,1.95
2022-11-16T17:53:44.235Z,2.20
2022-11-16T17:56:15.013Z,1.85
2022-11-16T17:58:41.754Z,2.30
2022-11-16T18:01:08.439Z,1.47
2022-11-16T18:03:38.937Z,1.60
2022-11-16T18:06:14.625Z,1.67
2022-11-16T18:08:42.469Z,1.55
2022-11-16T18:11:23.516Z,1.00
2022-11-16T18:13:55.101Z,1.60
2022-11-16T18:16:24.114Z,1.52
2022-11-16T18:18:56.918Z,1.20
2022-11-16T18:21:23.711Z,2.10
2022-11-16T18:23:50.247Z,16.10
2022-11-16T18:26:21.106Z,8.27
2022-11-16T18:28:48.858Z,7.45
2022-11-16T18:31:18.027Z,9.52
2022-11-16T18:33:45.082Z,12.50
2022-11-16T18:36:12.854Z,5.50
2022-11-16T18:38:39.299Z,2.90
2022-11-16T18:41:13.862Z,2.22
2022-11-16T18:43:51.210Z,2.40
2022-11-16T18:46:19.476Z,3.08
2022-11-16T18:48:46.761Z,2.25
2022-11-16T18:51:14.581Z,1.27
2022-11-16T18:53:41.691Z,1.67
2022-11-16T18:56:08.899Z,1.08
2022-11-16T18:58:52.744Z,1.67
2022-11-16T19:01:25.528Z,1.70
2022-11-16T19:03:53.650Z,2.40
2022-11-16T19:06:20.931Z,2.13
2022-11-16T19:08:55.009Z,1.50
2022-11-16T19:11:22.783Z,1.70
2022-11-16T19:13:53.974Z,1.13
2022-11-16T19:16:21.275Z,1.20
2022-11-16T19:18:47.891Z,1.20
2022-11-16T19:21:18.625Z,1.30
2022-11-16T19:23:51.007Z,0.90
2022-11-16T19:26:19.643Z,1.45
2022-11-16T19:28:48.380Z,1.30
2022-11-16T19:31:28.838Z,1.33
2022-11-16T19:33:59.679Z,1.00
2022-11-16T19:36:28.154Z,1.40
2022-11-16T19:38:54.847Z,1.85
2022-11-16T19:41:22.581Z,1.83
2022-11-16T19:43:56.938Z,1.75
2022-11-16T19:46:24.863Z,0.70
2022-11-16T19:48:52.276Z,1.27
2022-11-16T19:51:24.772Z,1.13
2022-11-16T19:53:51.758Z,1.10
2022-11-16T19:56:20.317Z,1.90
2022-11-16T19:58:47.279Z,2.10
2022-11-16T20:01:15.535Z,1.20
2022-11-16T20:03:42.246Z,1.40
2022-11-16T20:06:14.293Z,1.23
2022-11-16T20:08:42.510Z,1.52
2022-11-16T20:11:23.627Z,0.85
2022-11-16T20:13:51.792Z,1.00
2022-11-16T20:16:20.094Z,1.08
2022-11-16T20:18:47.565Z,1.03
2022-11-16T20:21:25.714Z,1.15
2022-11-16T20:23:53.443Z,1.17
2022-11-16T20:26:21.416Z,0.90
2022-11-16T20:28:52.215Z,1.45
2022-11-16T20:31:26.805Z,1.10
2022-11-16T20:33:58.312Z,2.10
2022-11-16T20:36:27.799Z,1.65
2022-11-16T20:38:55.724Z,1.70
2022-11-16T20:41:24.748Z,1.45
2022-11-16T20:43:56.377Z,1.30
2022-11-16T20:46:25.632Z,0.90
2022-11-16T20:48:52.150Z,1.10
2022-11-16T20:51:20.185Z,0.77
2022-11-16T20:53:47.928Z,0.98
2022-11-16T20:56:15.888Z,1.00
2022-11-16T20:58:42.734Z,0.85
2022-11-16T21:01:28.141Z,0.60
2022-11-16T21:03:55.936Z,0.98
2022-11-16T21:06:22.468Z,1.05
2022-11-16T21:08:49.193Z,0.80
2022-11-16T21:11:18.444Z,0.90
2022-11-16T21:14:18.221Z,1.02
2022-11-16T21:16:44.797Z,0.50
2022-11-16T21:19:11.924Z,0.75
2022-11-16T21:21:40.398Z,1.13
2022-11-16T21:24:10.094Z,1.10
2022-11-16T21:26:37.435Z,1.08
2022-11-16T21:29:04.264Z,1.13
2022-11-16T21:31:33.285Z,0.95
2022-11-16T21:34:00.991Z,1.50
2022-11-16T21:36:29.984Z,1.77
2022-11-16T21:38:58.047Z,2.53
2022-11-16T21:41:25.254Z,1.83
2022-11-16T21:43:51.761Z,1.40
2022-11-16T21:46:20.993Z,1.37
2022-11-16T21:48:48.187Z,1.10
2022-11-16T21:51:19.930Z,1.08
2022-11-16T21:53:46.846Z,1.70
2022-11-16T21:56:15.760Z,2.15
2022-11-16T21:58:42.924Z,3.00
2022-11-16T22:01:10.861Z,2.80
2022-11-16T22:03:38.333Z,2.47
2022-11-16T22:06:25.595Z,4.65
2022-11-16T22:08:52.688Z,2.08
2022-11-16T22:11:21.996Z,1.33
2022-11-16T22:13:49.744Z,1.38
2022-11-16T22:16:18.532Z,2.20
2022-11-16T22:18:45.112Z,2.30
2022-11-16T22:21:12.030Z,2.10
2022-11-16T22:23:39.038Z,2.40
2022-11-16T22:26:08.289Z,2.92
2022-11-16T22:28:35.521Z,3.60
2022-11-16T22:31:07.070Z,3.25
2022-11-16T22:33:34.886Z,9.75
2022-11-16T22:36:02.124Z,5.80
2022-11-16T22:38:28.737Z,6.97
2022-11-16T22:40:57.102Z,6.18
2022-11-16T22:43:26.448Z,5.20
2022-11-16T22:45:57.482Z,5.63
2022-11-16T22:48:27.888Z,3.40
2022-11-16T22:51:02.235Z,8.27
2022-11-16T22:53:28.691Z,7.00
2022-11-16T22:55:55.136Z,4.65
2022-11-16T22:58:21.646Z,5.50
2022-11-16T23:00:48.107Z,4.93
2022-11-16T23:03:14.601Z,5.03
2022-11-16T23:05:41.107Z,3.80
2022-11-16T23:08:07.545Z,3.72
2022-11-16T23:10:53.959Z,3.60
2022-11-16T23:13:39.130Z,11.90
2022-11-16T23:16:05.834Z,8.75
2022-11-16T23:18:32.250Z,5.28
2022-11-16T23:21:17.298Z,5.68
2022-11-16T23:24:02.167Z,4.32
2022-11-16T23:26:47.026Z,5.73
2022-11-16T23:29:13.476Z,5.82
2022-11-16T23:31:39.925Z,3.88
2022-11-16T23:34:06.436Z,2.65
2022-11-16T23:36:32.887Z,2.30
2022-11-16T23:38:59.386Z,4.03
2022-11-16T23:41:44.405Z,2.45
2022-11-16T23:44:10.899Z,1.90
2022-11-16T23:46:37.339Z,2.03
2022-11-16T23:49:03.835Z,1.80
2022-11-16T23:51:30.316Z,2.20
2022-11-16T23:53:56.931Z,2.00
2022-11-16T23:56:23.732Z,1.92
2022-11-16T23:58:50.247Z,2.13
